createdAt,value
2022-12-15T00:02:19.004Z,-2.70
2022-12-15T00:05:04.681Z,-2.73
2022-12-15T00:07:49.913Z,-2.80
2022-12-15T00:10:35.514Z,-2.84
2022-12-15T00:13:20.887Z,-2.79
2022-12-15T00:16:06.414Z,-2.79
2022-12-15T00:18:53.393Z,-2.81
2022-12-15T00:21:40.686Z,-2.75
2022-12-15T00:24:26.319Z,-2.79
2022-12-15T00:27:11.641Z,-2.76
2022-12-15T00:29:56.919Z,-2.97
2022-12-15T00:32:41.921Z,-2.89
2022-12-15T00:35:28.923Z,-3.04
2022-12-15T00:38:14.244Z,-3.12
2022-12-15T00:40:41.877Z,-3.01
2022-12-15T00:43:11.832Z,-3.01
2022-12-15T00:45:56.096Z,-2.90
2022-12-15T00:48:23.868Z,-2.96
2022-12-15T00:50:54.784Z,-2.84
2022-12-15T00:53:41.659Z,-2.80
2022-12-15T00:56:27.629Z,-2.89
2022-12-15T00:59:12.951Z,-2.92
2022-12-15T01:01:58.746Z,-2.74
2022-12-15T01:04:44.511Z,-2.92
2022-12-15T01:07:30.919Z,-2.91
2022-12-15T01:10:16.209Z,-2.91
2022-12-15T01:13:01.673Z,-2.90
2022-12-15T01:15:46.956Z,-2.97
2022-12-15T01:18:32.073Z,-3.08
2022-12-15T01:21:01.385Z,-3.14
2022-12-15T01:23:31.852Z,-3.10
2022-12-15T01:25:59.782Z,-3.16
2022-12-15T01:28:27.406Z,-3.07
2022-12-15T01:30:55.463Z,-2.99
2022-12-15T01:33:24.026Z,-2.97
2022-12-15T01:35:59.184Z,-3.06
2022-12-15T01:38:27.877Z,-2.96
2022-12-15T01:40:59.200Z,-2.85
2022-12-15T01:43:29.064Z,-2.99
2022-12-15T01:46:04.030Z,-2.91
2022-12-15T01:48:39.895Z,-2.92
2022-12-15T01:51:13.204Z,-2.93
2022-12-15T01:53:46.816Z,-2.86
2022-12-15T01:56:37.309Z,-2.83
2022-12-15T01:59:08.491Z,-2.72
2022-12-15T02:01:36.369Z,-2.70
2022-12-15T02:04:04.239Z,-2.69
2022-12-15T02:06:31.882Z,-2.71
2022-12-15T02:09:02.452Z,-2.74
2022-12-15T02:11:43.860Z,-2.87
2022-12-15T02:14:15.519Z,-2.87
2022-12-15T02:16:58.788Z,-2.76
2022-12-15T02:19:44.667Z,-2.76
2022-12-15T02:22:26.125Z,-2.91
2022-12-15T02:25:17.453Z,-2.79
2022-12-15T02:27:54.999Z,-2.84
2022-12-15T02:30:41.909Z,-2.89
2022-12-15T02:33:16.097Z,-2.94
2022-12-15T02:35:58.137Z,-3.04
2022-12-15T02:38:33.902Z,-2.89
2022-12-15T02:41:02.868Z,-2.93
2022-12-15T02:43:33.896Z,-2.91
2022-12-15T02:46:17.670Z,-2.91
2022-12-15T02:48:56.787Z,-3.01
2022-12-15T02:51:40.485Z,-3.01
2022-12-15T02:54:26.057Z,-3.19
2022-12-15T02:57:05.954Z,-3.23
2022-12-15T02:59:43.288Z,-3.25
2022-12-15T03:02:15.008Z,-3.32
2022-12-15T03:04:45.717Z,-3.37
2022-12-15T03:07:15.347Z,-3.27
2022-12-15T03:09:43.481Z,-3.23
2022-12-15T03:12:11.495Z,-3.13
2022-12-15T03:14:39.053Z,-3.12
2022-12-15T03:17:07.513Z,-3.17
2022-12-15T03:19:36.662Z,-3.04
2022-12-15T03:22:04.977Z,-3.19
2022-12-15T03:24:32.583Z,-3.20
2022-12-15T03:27:00.276Z,-3.05
2022-12-15T03:29:28.021Z,-3.12
2022-12-15T03:31:55.645Z,-3.24
2022-12-15T03:34:23.403Z,-3.18
2022-12-15T03:36:52.361Z,-3.18
2022-12-15T03:39:20.330Z,-3.26
2022-12-15T03:41:47.962Z,-3.28
2022-12-15T03:44:15.571Z,-3.39
2022-12-15T03:46:43.376Z,-3.35
2022-12-15T03:49:11.235Z,-3.24
2022-12-15T03:51:38.805Z,-3.28
2022-12-15T03:54:08.811Z,-3.43
2022-12-15T03:56:36.355Z,-3.42
2022-12-15T03:59:04.392Z,-3.46
2022-12-15T04:01:35.149Z,-3.59
2022-12-15T04:04:03.647Z,-3.62
2022-12-15T04:06:31.851Z,-3.70
2022-12-15T04:08:59.499Z,-3.75
2022-12-15T04:11:28.465Z,-3.70
2022-12-15T04:13:56.030Z,-3.78
2022-12-15T04:16:23.651Z,-3.73
2022-12-15T04:19:11.917Z,-3.71
2022-12-15T04:21:38.648Z,-3.79
2022-12-15T04:24:24.563Z,-3.86
2022-12-15T04:27:11.178Z,-3.83
2022-12-15T04:29:56.582Z,-3.85
2022-12-15T04:32:42.267Z,-3.94
2022-12-15T04:35:28.424Z,-3.78
2022-12-15T04:38:14.417Z,-3.87
2022-12-15T04:40:59.777Z,-3.99
2022-12-15T04:43:46.728Z,-3.89
2022-12-15T04:46:31.936Z,-3.82
2022-12-15T04:49:17.160Z,-3.69
2022-12-15T04:52:02.781Z,-3.75
2022-12-15T04:54:47.874Z,-3.72
2022-12-15T04:57:32.759Z,-3.74
2022-12-15T05:00:19.654Z,-3.70
2022-12-15T05:03:05.116Z,-3.67
2022-12-15T05:05:50.271Z,-3.70
2022-12-15T05:08:35.660Z,-3.67
2022-12-15T05:11:20.757Z,-3.72
2022-12-15T05:14:06.108Z,-3.81
2022-12-15T05:16:52.344Z,-3.74
2022-12-15T05:19:37.528Z,-3.58
2022-12-15T05:22:22.582Z,-3.79
2022-12-15T05:25:08.010Z,-3.57
2022-12-15T05:27:53.328Z,-3.65
2022-12-15T05:30:38.609Z,-3.70
2022-12-15T05:33:07.848Z,-3.81
2022-12-15T05:35:35.401Z,-3.75
2022-12-15T05:38:03.005Z,-3.80
2022-12-15T05:40:30.541Z,-3.74
2022-12-15T05:42:59.328Z,-3.94
2022-12-15T05:45:27.168Z,-3.95
2022-12-15T05:47:55.802Z,-4.13
2022-12-15T05:50:24.861Z,-4.18
2022-12-15T05:52:52.449Z,-4.19
2022-12-15T05:55:20.560Z,-4.24
2022-12-15T05:57:52.175Z,-4.20
2022-12-15T06:00:20.384Z,-4.29
2022-12-15T06:02:48.215Z,-4.33
2022-12-15T06:05:17.834Z,-4.26
2022-12-15T06:07:46.838Z,-4.27
2022-12-15T06:10:14.745Z,-4.23
2022-12-15T06:12:42.356Z,-4.25
2022-12-15T06:15:10.897Z,-4.38
2022-12-15T06:17:38.605Z,-4.33
2022-12-15T06:20:07.223Z,-4.17
2022-12-15T06:22:35.909Z,-4.06
2022-12-15T06:25:05.438Z,-4.00
2022-12-15T06:27:33.000Z,-4.22
2022-12-15T06:30:01.274Z,-4.46
2022-12-15T06:32:28.869Z,-4.34
2022-12-15T06:34:56.503Z,-4.47
2022-12-15T06:37:24.273Z,-4.53
2022-12-15T06:39:51.819Z,-4.57
2022-12-15T06:42:21.815Z,-4.69
2022-12-15T06:44:49.979Z,-4.66
2022-12-15T06:47:18.255Z,-4.84
2022-12-15T06:49:45.858Z,-4.85
2022-12-15T06:52:14.681Z,-4.88
2022-12-15T06:54:42.513Z,-4.84
2022-12-15T06:57:10.191Z,-4.96
2022-12-15T06:59:39.165Z,-5.03
2022-12-15T07:02:16.204Z,-5.06
2022-12-15T07:04:44.677Z,-5.21
2022-12-15T07:07:12.358Z,-5.26
2022-12-15T07:09:40.035Z,-5.21
2022-12-15T07:12:08.446Z,-5.26
2022-12-15T07:14:36.086Z,-5.14
2022-12-15T07:17:05.068Z,-5.33
2022-12-15T07:19:32.943Z,-5.37
2022-12-15T07:22:01.356Z,-5.26
2022-12-15T07:24:28.981Z,-5.32
2022-12-15T07:26:57.059Z,-5.42
2022-12-15T07:29:24.633Z,-5.36
2022-12-15T07:31:53.313Z,-5.36
2022-12-15T07:34:22.625Z,-5.31
2022-12-15T07:36:52.609Z,-5.33
2022-12-15T07:39:21.135Z,-5.42
2022-12-15T07:41:48.812Z,-5.48
2022-12-15T07:44:16.648Z,-5.39
2022-12-15T07:46:46.706Z,-5.39
2022-12-15T07:49:14.565Z,-5.41
2022-12-15T07:51:43.624Z,-5.40
2022-12-15T07:54:12.571Z,-5.37
2022-12-15T07:56:40.863Z,-5.37
2022-12-15T07:59:09.889Z,-5.48
2022-12-15T08:01:37.685Z,-5.50
2022-12-15T08:04:05.523Z,-5.43
2022-12-15T08:06:33.649Z,-5.44
2022-12-15T08:09:02.753Z,-5.48
2022-12-15T08:11:34.489Z,-5.56
2022-12-15T08:14:03.993Z,-5.53
2022-12-15T08:16:34.391Z,-5.44
2022-12-15T08:19:02.151Z,-5.41
2022-12-15T08:21:31.257Z,-5.25
2022-12-15T08:24:00.835Z,-5.02
2022-12-15T08:26:31.282Z,-4.67
2022-12-15T08:29:31.757Z,-4.48
2022-12-15T08:31:51.494Z,-4.43
2022-12-15T08:34:19.099Z,-4.58
2022-12-15T08:36:46.694Z,-4.43
2022-12-15T08:39:15.390Z,-4.37
2022-12-15T08:41:44.898Z,-4.43
2022-12-15T08:44:12.588Z,-4.19
2022-12-15T08:46:40.207Z,-3.87
2022-12-15T08:49:08.646Z,-3.55
2022-12-15T08:51:36.215Z,-3.53
2022-12-15T08:54:03.906Z,-3.73
2022-12-15T08:56:31.615Z,-3.60
2022-12-15T08:59:02.056Z,-3.28
2022-12-15T09:01:32.411Z,-2.99
2022-12-15T09:04:01.287Z,-2.62
2022-12-15T09:06:30.977Z,-2.20
2022-12-15T09:09:00.086Z,-1.94
2022-12-15T09:11:29.206Z,-1.86
2022-12-15T09:13:57.389Z,-1.99
2022-12-15T09:16:27.612Z,-1.86
2022-12-15T09:18:56.689Z,-1.56
2022-12-15T09:21:26.601Z,-1.67
2022-12-15T09:23:55.880Z,-1.93
2022-12-15T09:26:24.502Z,-1.86
2022-12-15T09:28:52.328Z,-1.85
2022-12-15T09:31:22.022Z,-1.46
2022-12-15T09:33:52.144Z,-1.55
2022-12-15T09:36:20.621Z,-1.83
2022-12-15T09:38:48.327Z,-1.81
2022-12-15T09:41:22.683Z,-1.72
2022-12-15T09:43:56.472Z,-2.13
2022-12-15T09:46:34.660Z,-1.93
2022-12-15T09:49:09.746Z,-1.98
2022-12-15T09:51:45.521Z,-1.78
2022-12-15T09:54:13.152Z,-2.09
2022-12-15T09:56:49.709Z,-1.65
2022-12-15T09:59:27.115Z,-1.59
2022-12-15T10:02:16.711Z,-1.78
2022-12-15T10:04:56.879Z,-1.90
2022-12-15T10:07:30.618Z,-1.77
2022-12-15T10:09:58.270Z,-1.55
2022-12-15T10:12:29.775Z,-1.85
2022-12-15T10:15:09.328Z,-1.68
2022-12-15T10:17:48.520Z,-1.71
2022-12-15T10:20:21.485Z,-1.99
2022-12-15T10:22:51.228Z,-2.05
2022-12-15T10:25:29.429Z,-2.04
2022-12-15T10:28:38.676Z,-1.82
2022-12-15T10:31:17.236Z,-2.07
2022-12-15T10:33:50.356Z,-1.85
2022-12-15T10:36:19.583Z,-2.18
2022-12-15T10:38:50.490Z,-2.14
2022-12-15T10:41:21.543Z,-2.21
2022-12-15T10:43:52.092Z,-2.51
2022-12-15T10:46:22.850Z,-2.26
2022-12-15T10:48:52.775Z,-2.23
2022-12-15T10:51:27.273Z,-2.06
2022-12-15T10:54:04.556Z,-1.85
2022-12-15T10:56:34.619Z,-1.94
2022-12-15T10:59:04.383Z,-2.41
2022-12-15T11:01:35.696Z,-2.31
2022-12-15T11:04:03.929Z,-2.48
2022-12-15T11:06:36.712Z,-2.73
2022-12-15T11:09:27.738Z,-2.06
2022-12-15T11:12:13.734Z,-1.94
2022-12-15T11:14:46.189Z,-2.58
2022-12-15T11:17:18.124Z,-2.82
2022-12-15T11:19:56.748Z,-2.53
2022-12-15T11:22:46.751Z,-2.09
2022-12-15T11:25:23.062Z,-2.26
2022-12-15T11:27:55.068Z,-1.77
2022-12-15T11:30:25.306Z,-1.81
2022-12-15T11:32:55.878Z,-1.96
2022-12-15T11:35:28.730Z,-1.49
2022-12-15T11:38:09.857Z,-1.85
2022-12-15T11:40:40.590Z,-1.85
2022-12-15T11:43:26.746Z,-1.89
2022-12-15T11:46:17.232Z,-1.72
2022-12-15T11:49:02.647Z,-1.76
2022-12-15T11:51:40.360Z,-2.02
2022-12-15T11:54:20.104Z,-2.42
2022-12-15T11:56:51.626Z,-2.04
2022-12-15T11:59:44.608Z,-2.01
2022-12-15T12:02:35.103Z,-1.80
2022-12-15T12:05:18.385Z,-1.61
2022-12-15T12:07:49.096Z,-2.30
2022-12-15T12:10:31.002Z,-2.34
2022-12-15T12:13:06.304Z,-2.41
2022-12-15T12:15:42.243Z,-2.70
2022-12-15T12:18:18.839Z,-2.23
2022-12-15T12:20:51.579Z,-1.93
2022-12-15T12:23:28.251Z,-2.41
2022-12-15T12:26:05.871Z,-2.24
2022-12-15T12:28:42.936Z,-1.91
2022-12-15T12:31:23.363Z,-1.97
2022-12-15T12:33:55.387Z,-1.98
2022-12-15T12:36:23.455Z,-2.03
2022-12-15T12:38:56.271Z,-2.18
2022-12-15T12:41:35.625Z,-2.25
2022-12-15T12:44:12.010Z,-2.13
2022-12-15T12:46:43.741Z,-2.24
2022-12-15T12:49:26.079Z,-2.19
2022-12-15T12:51:56.444Z,-2.29
2022-12-15T12:54:42.543Z,-2.11
2022-12-15T12:57:38.162Z,-2.55
2022-12-15T13:00:18.422Z,-2.10
2022-12-15T13:03:17.372Z,-2.19
2022-12-15T13:05:50.494Z,-2.35
2022-12-15T13:08:50.881Z,-2.17
2022-12-15T13:11:56.531Z,-2.15
2022-12-15T13:17:41.815Z,-1.99
2022-12-15T13:20:32.049Z,-1.97
2022-12-15T13:23:38.149Z,-1.76
2022-12-15T13:26:18.833Z,-2.23
2022-12-15T13:28:51.258Z,-2.37
2022-12-15T13:31:45.160Z,-2.20
2022-12-15T13:34:19.018Z,-2.20
2022-12-15T13:36:55.132Z,-1.88
2022-12-15T13:39:59.093Z,-1.91
2022-12-15T13:45:45.082Z,-1.37
2022-12-15T13:48:28.427Z,-1.22
2022-12-15T13:51:06.968Z,-1.33
2022-12-15T13:53:41.469Z,-1.09
2022-12-15T13:56:25.472Z,-0.97
2022-12-15T13:59:01.651Z,-1.21
2022-12-15T14:01:33.129Z,-1.71
2022-12-15T14:04:06.861Z,-1.31
2022-12-15T14:06:41.177Z,-1.41
2022-12-15T14:09:14.900Z,-1.61
2022-12-15T14:14:36.344Z,-1.88
2022-12-15T14:17:07.837Z,-2.00
2022-12-15T14:19:42.087Z,-2.45
2022-12-15T14:22:28.173Z,-2.49
2022-12-15T14:25:13.222Z,-2.65
2022-12-15T14:27:41.936Z,-2.45
2022-12-15T14:30:23.279Z,-2.43
2022-12-15T14:32:55.644Z,-2.29
2022-12-15T14:35:31.123Z,-2.39
2022-12-15T14:38:01.857Z,-2.65
2022-12-15T14:40:30.863Z,-2.58
2022-12-15T14:42:59.062Z,-2.47
2022-12-15T14:45:29.590Z,-2.32
2022-12-15T14:50:51.236Z,-2.61
2022-12-15T14:53:21.927Z,-2.12
2022-12-15T14:55:51.492Z,-2.27
2022-12-15T14:58:33.407Z,-2.24
2022-12-15T15:01:02.848Z,-2.19
2022-12-15T15:03:05.833Z,-1.72
2022-12-15T15:03:07.531Z,-1.86
2022-12-15T15:03:16.586Z,-1.92
2022-12-15T15:03:38.270Z,-2.52
2022-12-15T15:06:18.821Z,-2.34
2022-12-15T15:08:48.918Z,-1.99
2022-12-15T15:11:25.307Z,-1.77
2022-12-15T15:13:56.897Z,-1.79
2022-12-15T15:16:24.966Z,-1.74
2022-12-15T15:18:55.606Z,-1.76
2022-12-15T15:21:28.063Z,-2.05
2022-12-15T15:24:00.536Z,-2.38
2022-12-15T15:26:29.337Z,-2.46
2022-12-15T15:28:57.002Z,-2.60
2022-12-15T15:31:35.244Z,-2.76
2022-12-15T15:34:08.101Z,-2.92
2022-12-15T15:36:39.246Z,-2.85
2022-12-15T15:39:13.711Z,-2.76
2022-12-15T15:41:41.316Z,-2.65
2022-12-15T15:44:14.532Z,-2.57
2022-12-15T15:46:47.374Z,-2.50
2022-12-15T15:49:17.727Z,-2.54
2022-12-15T15:51:47.033Z,-2.44
2022-12-15T15:54:17.394Z,-2.37
2022-12-15T15:56:44.998Z,-2.28
2022-12-15T15:59:14.758Z,-2.50
2022-12-15T16:01:42.529Z,-2.71
2022-12-15T16:04:12.196Z,-2.65
2022-12-15T16:06:46.757Z,-2.71
2022-12-15T16:09:17.509Z,-3.12
2022-12-15T16:11:46.058Z,-2.88
2022-12-15T16:14:15.508Z,-2.71
2022-12-15T16:16:43.742Z,-2.67
2022-12-15T16:19:12.270Z,-2.84
2022-12-15T16:21:40.958Z,-2.87
2022-12-15T16:24:15.196Z,-2.62
2022-12-15T16:26:48.252Z,-2.74
2022-12-15T16:29:17.053Z,-2.58
2022-12-15T16:31:45.813Z,-2.63
2022-12-15T16:34:16.455Z,-2.52
2022-12-15T16:36:45.266Z,-2.62
2022-12-15T16:39:28.028Z,-2.77
2022-12-15T16:41:57.819Z,-2.53
2022-12-15T16:44:26.702Z,-2.66
2022-12-15T16:46:54.577Z,-2.98
2022-12-15T16:49:22.531Z,-2.77
2022-12-15T16:51:53.713Z,-2.45
2022-12-15T16:54:24.174Z,-2.37
2022-12-15T16:56:53.054Z,-2.40
2022-12-15T16:59:33.199Z,-2.50
2022-12-15T17:02:01.893Z,-2.28
2022-12-15T17:04:29.594Z,-2.40
2022-12-15T17:06:57.395Z,-2.58
2022-12-15T17:09:26.764Z,-2.17
2022-12-15T17:11:54.678Z,-2.25
2022-12-15T17:14:23.847Z,-2.12
2022-12-15T17:16:51.638Z,-2.14
2022-12-15T17:19:21.246Z,-2.31
2022-12-15T17:21:51.809Z,-2.27
2022-12-15T17:24:22.170Z,-2.34
2022-12-15T17:26:50.735Z,-2.10
2022-12-15T17:29:20.949Z,-2.07
2022-12-15T17:31:50.592Z,-2.14
2022-12-15T17:34:27.224Z,-2.08
2022-12-15T17:36:55.415Z,-2.26
2022-12-15T17:39:25.030Z,-2.25
2022-12-15T17:42:02.037Z,-2.22
2022-12-15T17:44:34.473Z,-2.19
2022-12-15T17:47:06.521Z,-2.19
2022-12-15T17:49:37.599Z,-2.54
2022-12-15T17:52:09.060Z,-2.46
2022-12-15T17:54:36.757Z,-2.21
2022-12-15T17:57:04.498Z,-2.10
2022-12-15T17:59:32.577Z,-2.31
2022-12-15T18:02:00.295Z,-2.47
2022-12-15T18:04:29.434Z,-2.43
2022-12-15T18:07:01.473Z,-2.21
2022-12-15T18:09:30.365Z,-2.27
2022-12-15T18:11:59.041Z,-2.24
2022-12-15T18:14:28.806Z,-2.26
2022-12-15T18:16:56.595Z,-2.18
2022-12-15T18:19:24.359Z,-2.42
2022-12-15T18:21:54.544Z,-2.16
2022-12-15T18:24:23.251Z,-2.18
2022-12-15T18:26:50.874Z,-2.27
2022-12-15T18:29:19.057Z,-2.27
2022-12-15T18:31:49.311Z,-2.36
2022-12-15T18:34:21.281Z,-2.37
2022-12-15T18:36:50.524Z,-2.44
2022-12-15T18:39:23.530Z,-2.24
2022-12-15T18:41:54.405Z,-2.28
2022-12-15T18:44:24.840Z,-2.18
2022-12-15T18:46:53.066Z,-2.19
2022-12-15T18:49:23.110Z,-2.20
2022-12-15T18:51:51.011Z,-2.13
2022-12-15T18:54:22.132Z,-2.10
2022-12-15T18:57:07.990Z,-2.10
2022-12-15T18:59:58.011Z,-2.20
2022-12-15T19:02:42.818Z,-2.35
2022-12-15T19:05:27.884Z,-2.29
2022-12-15T19:07:59.764Z,-2.23
2022-12-15T19:10:47.996Z,-2.45
2022-12-15T19:13:24.974Z,-2.32
2022-12-15T19:15:57.267Z,-2.34
2022-12-15T19:18:44.382Z,-2.38
2022-12-15T19:21:40.228Z,-2.48
2022-12-15T19:24:12.385Z,-2.28
2022-12-15T19:26:46.302Z,-2.31
2022-12-15T19:32:33.210Z,-2.33
2022-12-15T19:35:08.986Z,-2.26
2022-12-15T19:37:41.660Z,-2.11
2022-12-15T19:40:21.612Z,-1.99
2022-12-15T19:42:53.346Z,-1.94
2022-12-15T19:45:27.225Z,-2.09
2022-12-15T19:47:55.656Z,-2.19
2022-12-15T19:50:40.747Z,-2.14
2022-12-15T19:53:16.464Z,-2.12
2022-12-15T19:55:46.175Z,-2.09
2022-12-15T19:58:29.330Z,-1.79
2022-12-15T20:01:02.483Z,-1.84
2022-12-15T20:03:33.245Z,-1.83
2022-12-15T20:06:07.439Z,-1.81
2022-12-15T20:08:42.205Z,-1.71
2022-12-15T20:11:18.591Z,-1.66
2022-12-15T20:13:50.935Z,-1.68
2022-12-15T20:16:20.200Z,-1.58
2022-12-15T20:18:49.882Z,-1.84
2022-12-15T20:21:22.769Z,-1.97
2022-12-15T20:23:54.515Z,-2.01
2022-12-15T20:26:24.566Z,-1.80
2022-12-15T20:28:56.929Z,-2.09
2022-12-15T20:31:27.350Z,-1.82
2022-12-15T20:33:57.432Z,-1.78
2022-12-15T20:36:27.659Z,-1.72
2022-12-15T20:38:56.003Z,-1.69
2022-12-15T20:41:25.985Z,-1.84
2022-12-15T20:43:57.919Z,-1.96
2022-12-15T20:46:28.360Z,-1.80
2022-12-15T20:48:57.044Z,-1.71
2022-12-15T20:51:28.030Z,-1.63
2022-12-15T20:53:57.806Z,-1.72
2022-12-15T20:56:26.399Z,-1.49
2022-12-15T20:58:58.302Z,-1.57
2022-12-15T21:01:30.488Z,-1.61
2022-12-15T21:04:00.057Z,-1.88
2022-12-15T21:06:29.232Z,-1.87
2022-12-15T21:08:57.766Z,-1.82
2022-12-15T21:11:28.875Z,-1.67
2022-12-15T21:14:04.800Z,-1.94
2022-12-15T21:16:34.020Z,-1.88
2022-12-15T21:21:54.964Z,-2.18
2022-12-15T21:24:26.187Z,-2.19
2022-12-15T21:26:54.877Z,-2.03
2022-12-15T21:29:26.633Z,-2.15
2022-12-15T21:31:54.568Z,-2.20
2022-12-15T21:34:22.334Z,-2.20
2022-12-15T21:36:55.208Z,-2.15
2022-12-15T21:39:29.143Z,-2.27
2022-12-15T21:41:58.940Z,-2.16
2022-12-15T21:44:28.327Z,-2.19
2022-12-15T21:46:56.009Z,-1.98
2022-12-15T21:49:23.340Z,-1.98
2022-12-15T21:51:53.725Z,-1.97
2022-12-15T21:54:30.706Z,-1.85
2022-12-15T21:56:58.835Z,-1.94
2022-12-15T21:59:31.346Z,-1.95
2022-12-15T22:02:00.610Z,-1.97
2022-12-15T22:04:31.572Z,-1.96
2022-12-15T22:06:59.360Z,-1.99
2022-12-15T22:09:27.150Z,-1.96
2022-12-15T22:11:56.822Z,-1.89
2022-12-15T22:14:26.481Z,-1.92
2022-12-15T22:16:55.730Z,-2.01
2022-12-15T22:19:24.212Z,-2.00
2022-12-15T22:21:52.067Z,-2.12
2022-12-15T22:24:20.181Z,-2.09
2022-12-15T22:26:49.358Z,-2.00
2022-12-15T22:29:20.343Z,-2.15
2022-12-15T22:31:48.476Z,-1.96
2022-12-15T22:34:19.039Z,-1.88
2022-12-15T22:36:46.736Z,-2.10
2022-12-15T22:39:15.204Z,-2.04
2022-12-15T22:41:45.229Z,-1.97
2022-12-15T22:44:17.567Z,-2.04
2022-12-15T22:46:45.537Z,-2.20
2022-12-15T22:49:18.574Z,-1.99
2022-12-15T22:51:46.346Z,-1.92
2022-12-15T22:54:21.739Z,-2.10
2022-12-15T22:56:51.944Z,-2.17
2022-12-15T22:59:27.257Z,-1.97
2022-12-15T23:01:56.043Z,-2.04
2022-12-15T23:04:25.610Z,-2.06
2022-12-15T23:06:53.280Z,-2.15
2022-12-15T23:09:22.665Z,-2.26
2022-12-15T23:11:49.345Z,-2.04
2022-12-15T23:14:19.104Z,-2.21
2022-12-15T23:16:46.714Z,-2.04
2022-12-15T23:19:23.613Z,-2.11
2022-12-15T23:21:53.084Z,-1.92
2022-12-15T23:24:20.774Z,-2.05
2022-12-15T23:26:48.535Z,-1.94
2022-12-15T23:29:16.231Z,-2.06
2022-12-15T23:31:45.191Z,-1.99
2022-12-15T23:34:14.163Z,-2.04
2022-12-15T23:36:41.810Z,-2.08
2022-12-15T23:39:10.871Z,-1.97
2022-12-15T23:41:38.575Z,-1.98
2022-12-15T23:44:06.723Z,-2.11
2022-12-15T23:46:34.730Z,-2.07
2022-12-15T23:49:02.645Z,-2.15
2022-12-15T23:51:30.305Z,-2.13
2022-12-15T23:53:57.890Z,-2.04
2022-12-15T23:56:28.210Z,-2.01
2022-12-15T23:58:57.405Z,-2.18
